createdAt,value
2022-11-17T00:02:09.846Z,6.20
2022-11-17T00:05:11.813Z,6.00
2022-11-17T00:08:13.496Z,6.30
2022-11-17T00:11:15.377Z,6.10
2022-11-17T00:14:36.687Z,6.10
2022-11-17T00:17:38.373Z,6.00
2022-11-17T00:20:59.636Z,6.10
2022-11-17T00:24:01.559Z,6.20
2022-11-17T00:27:03.344Z,6.10
2022-11-17T00:30:06.291Z,6.10
2022-11-17T00:33:27.781Z,6.10
2022-11-17T00:36:29.513Z,6.10
2022-11-17T00:39:32.015Z,6.10
2022-11-17T00:42:50.088Z,6.00
2022-11-17T00:45:51.703Z,6.10
2022-11-17T00:48:53.497Z,5.90
2022-11-17T00:51:56.255Z,6.00
2022-11-17T00:54:58.000Z,6.00
2022-11-17T00:57:59.792Z,6.00
2022-11-17T01:01:01.698Z,6.10
2022-11-17T01:04:04.777Z,5.90
2022-11-17T01:07:06.521Z,5.90
2022-11-17T01:10:08.877Z,5.90
2022-11-17T01:13:10.699Z,5.80
2022-11-17T01:16:15.472Z,5.80
2022-11-17T01:19:18.283Z,5.80
2022-11-17T01:22:20.001Z,5.50
2022-11-17T01:25:22.152Z,5.80
2022-11-17T01:28:23.835Z,5.70
2022-11-17T01:31:29.041Z,5.80
2022-11-17T01:34:30.788Z,5.60
2022-11-17T01:37:32.479Z,5.70
2022-11-17T01:40:34.217Z,5.50
2022-11-17T01:43:42.315Z,5.80
2022-11-17T01:46:46.375Z,5.60
2022-11-17T01:49:55.224Z,5.70
2022-11-17T01:53:01.175Z,5.50
2022-11-17T01:56:11.181Z,5.40
2022-11-17T01:59:24.076Z,5.30
2022-11-17T02:02:41.070Z,5.40
2022-11-17T02:05:58.706Z,5.40
2022-11-17T02:09:02.592Z,5.40
2022-11-17T02:12:06.234Z,5.30
2022-11-17T02:15:08.417Z,5.30
2022-11-17T02:18:10.228Z,5.30
2022-11-17T02:21:29.225Z,5.30
2022-11-17T02:25:27.148Z,5.30
2022-11-17T02:28:39.170Z,5.30
2022-11-17T02:32:10.476Z,5.20
2022-11-17T02:35:22.003Z,5.20
2022-11-17T02:38:49.519Z,5.30
2022-11-17T02:42:14.243Z,5.20
2022-11-17T02:45:29.650Z,5.20
2022-11-17T02:48:47.247Z,5.20
2022-11-17T02:51:54.838Z,5.10
2022-11-17T02:55:10.796Z,5.10
2022-11-17T02:58:21.620Z,5.10
2022-11-17T03:01:41.791Z,5.10
2022-11-17T03:05:14.240Z,5.20
2022-11-17T03:08:50.193Z,5.00
2022-11-17T03:12:10.647Z,5.10
2022-11-17T03:15:46.138Z,5.00
2022-11-17T03:18:47.765Z,5.00
2022-11-17T03:22:09.426Z,5.10
2022-11-17T03:25:15.881Z,5.00
2022-11-17T03:28:20.971Z,4.90
2022-11-17T03:31:24.257Z,4.90
2022-11-17T03:34:29.887Z,4.80
2022-11-17T03:37:36.144Z,5.00
2022-11-17T03:40:41.311Z,4.70
2022-11-17T03:43:45.124Z,5.20
2022-11-17T03:46:51.980Z,5.20
2022-11-17T03:50:12.099Z,4.90
2022-11-17T03:53:14.134Z,4.80
2022-11-17T03:56:44.195Z,4.80
2022-11-17T03:59:56.808Z,4.70
2022-11-17T04:02:58.849Z,4.70
2022-11-17T04:06:01.256Z,4.30
2022-11-17T04:09:02.873Z,4.40
2022-11-17T04:12:23.131Z,4.20
2022-11-17T04:15:43.882Z,4.60
2022-11-17T04:18:45.492Z,4.60
2022-11-17T04:21:47.097Z,4.50
2022-11-17T04:24:48.713Z,4.50
2022-11-17T04:28:08.994Z,4.20
2022-11-17T04:31:13.756Z,4.40
2022-11-17T04:34:15.388Z,4.40
2022-11-17T04:37:19.731Z,4.10
2022-11-17T04:40:21.481Z,4.10
2022-11-17T04:43:23.193Z,4.30
2022-11-17T04:46:35.493Z,4.30
2022-11-17T04:49:37.190Z,4.40
2022-11-17T04:52:38.889Z,3.70
2022-11-17T04:55:40.517Z,5.30
2022-11-17T04:58:42.755Z,3.40
2022-11-17T05:01:47.885Z,4.60
2022-11-17T05:04:58.494Z,4.20
2022-11-17T05:08:00.550Z,3.60
2022-11-17T05:11:20.913Z,4.30
2022-11-17T05:14:24.463Z,5.00
2022-11-17T05:17:26.091Z,4.30
2022-11-17T05:20:27.717Z,4.30
2022-11-17T05:23:48.059Z,4.30
2022-11-17T05:26:50.329Z,4.20
2022-11-17T05:29:52.336Z,4.30
2022-11-17T05:32:53.944Z,4.00
2022-11-17T05:35:55.559Z,4.20
2022-11-17T05:38:57.424Z,3.90
2022-11-17T05:41:59.066Z,4.20
2022-11-17T05:45:00.714Z,4.10
2022-11-17T05:48:02.378Z,3.80
2022-11-17T05:51:04.175Z,3.80
2022-11-17T05:54:05.815Z,4.20
2022-11-17T05:57:12.615Z,4.20
2022-11-17T06:00:15.034Z,4.20
2022-11-17T06:03:20.487Z,4.20
2022-11-17T06:06:22.458Z,4.10
2022-11-17T06:09:24.693Z,4.30
2022-11-17T06:12:26.352Z,4.20
2022-11-17T06:15:28.930Z,4.30
2022-11-17T06:18:41.722Z,4.30
2022-11-17T06:22:10.486Z,4.30
2022-11-17T06:25:09.556Z,4.30
2022-11-17T06:28:14.940Z,4.30
2022-11-17T06:31:17.479Z,4.20
2022-11-17T06:34:19.246Z,4.30
2022-11-17T06:37:20.881Z,4.30
2022-11-17T06:40:22.487Z,4.30
2022-11-17T06:43:24.199Z,4.30
2022-11-17T06:46:37.737Z,4.10
2022-11-17T06:49:39.435Z,4.30
2022-11-17T06:52:41.248Z,4.30
2022-11-17T06:55:45.908Z,5.50
2022-11-17T06:58:50.506Z,4.10
2022-11-17T07:01:52.559Z,4.20
2022-11-17T07:04:54.263Z,4.20
2022-11-17T07:08:00.204Z,4.00
2022-11-17T07:11:10.235Z,4.00
2022-11-17T07:14:11.971Z,4.50
2022-11-17T07:17:13.759Z,4.10
2022-11-17T07:20:16.398Z,3.90
2022-11-17T07:23:18.161Z,4.20
2022-11-17T07:26:19.936Z,3.80
2022-11-17T07:29:21.878Z,3.90
2022-11-17T07:32:24.156Z,4.10
2022-11-17T07:35:25.963Z,4.10
2022-11-17T07:38:37.987Z,4.50
2022-11-17T07:41:39.978Z,4.20
2022-11-17T07:44:41.689Z,4.00
2022-11-17T07:47:43.417Z,4.20
2022-11-17T07:50:45.206Z,3.90
2022-11-17T07:53:47.325Z,4.10
2022-11-17T07:56:49.080Z,3.90
2022-11-17T07:59:50.833Z,4.30
2022-11-17T08:02:52.618Z,4.80
2022-11-17T08:05:54.321Z,4.10
2022-11-17T08:08:56.099Z,4.10
2022-11-17T08:11:59.084Z,4.00
2022-11-17T08:15:24.832Z,4.30
2022-11-17T08:18:27.001Z,4.30
2022-11-17T08:21:28.793Z,4.30
2022-11-17T08:24:30.504Z,4.40
2022-11-17T08:27:32.171Z,4.40
2022-11-17T08:30:35.816Z,4.40
2022-11-17T08:33:37.549Z,4.40
2022-11-17T08:36:40.142Z,4.40
2022-11-17T08:39:41.899Z,4.40
2022-11-17T08:42:43.672Z,4.40
2022-11-17T08:45:45.381Z,4.40
2022-11-17T08:48:48.975Z,4.40
2022-11-17T08:51:54.039Z,4.40
2022-11-17T08:54:55.846Z,4.50
2022-11-17T08:57:57.600Z,4.20
2022-11-17T09:01:04.948Z,4.60
2022-11-17T09:04:07.204Z,4.50
2022-11-17T09:07:08.937Z,4.60
2022-11-17T09:10:11.287Z,4.70
2022-11-17T09:13:17.483Z,5.10
2022-11-17T09:16:20.600Z,4.70
2022-11-17T09:19:22.232Z,4.60
2022-11-17T09:22:23.897Z,4.60
2022-11-17T09:25:25.515Z,4.60
2022-11-17T09:28:27.571Z,4.70
2022-11-17T09:31:30.040Z,4.40
2022-11-17T09:34:31.941Z,4.30
2022-11-17T09:37:33.732Z,4.60
2022-11-17T09:40:46.799Z,4.60
2022-11-17T09:44:17.618Z,4.60
2022-11-17T09:47:41.198Z,4.60
2022-11-17T09:50:45.388Z,4.60
2022-11-17T09:53:56.433Z,4.50
2022-11-17T09:56:59.189Z,4.60
2022-11-17T10:00:27.876Z,4.50
2022-11-17T10:03:38.757Z,4.50
2022-11-17T10:06:46.380Z,4.60
2022-11-17T10:09:51.799Z,4.50
2022-11-17T10:12:57.896Z,4.60
2022-11-17T10:16:05.414Z,4.60
2022-11-17T10:19:38.092Z,4.60
2022-11-17T10:22:40.434Z,4.50
2022-11-17T10:26:23.880Z,4.50
2022-11-17T10:29:25.639Z,4.60
2022-11-17T10:32:29.139Z,4.60
2022-11-17T10:35:34.144Z,4.50
2022-11-17T10:38:36.027Z,4.60
2022-11-17T10:41:45.176Z,4.70
2022-11-17T10:44:52.795Z,4.70
2022-11-17T10:48:09.243Z,4.60
2022-11-17T10:51:19.191Z,4.60
2022-11-17T10:54:21.890Z,4.60
2022-11-17T10:57:26.691Z,4.60
2022-11-17T11:00:34.726Z,4.80
2022-11-17T11:03:51.782Z,4.60
2022-11-17T11:07:11.594Z,4.70
2022-11-17T11:10:36.896Z,4.70
2022-11-17T11:13:53.834Z,4.70
2022-11-17T11:16:57.710Z,4.70
2022-11-17T11:19:59.631Z,4.70
2022-11-17T11:23:23.253Z,4.70
2022-11-17T11:27:07.646Z,4.60
2022-11-17T11:30:17.727Z,4.60
2022-11-17T11:33:30.442Z,4.60
2022-11-17T11:36:42.772Z,4.70
2022-11-17T11:39:55.207Z,4.70
2022-11-17T11:43:20.253Z,4.70
2022-11-17T11:46:40.661Z,4.70
2022-11-17T11:50:21.271Z,4.70
2022-11-17T11:53:32.839Z,4.80
2022-11-17T11:56:38.577Z,4.80
2022-11-17T11:59:48.433Z,4.80
2022-11-17T12:03:26.670Z,4.80
2022-11-17T12:07:01.652Z,4.80
2022-11-17T12:10:12.873Z,4.80
2022-11-17T12:13:18.166Z,4.80
2022-11-17T12:16:28.568Z,4.90
2022-11-17T12:19:50.685Z,4.90
2022-11-17T12:23:29.073Z,5.00
2022-11-17T12:26:33.300Z,5.00
2022-11-17T12:29:46.419Z,5.00
2022-11-17T12:32:48.076Z,5.10
2022-11-17T12:36:29.743Z,5.10
2022-11-17T12:40:29.977Z,5.10
2022-11-17T12:43:31.674Z,5.10
2022-11-17T12:46:33.511Z,5.20
2022-11-17T12:49:51.782Z,5.20
2022-11-17T12:53:15.372Z,5.20
2022-11-17T12:56:39.039Z,5.30
2022-11-17T13:00:11.561Z,5.30
2022-11-17T13:03:21.987Z,5.30
2022-11-17T13:06:39.234Z,5.30
2022-11-17T13:09:40.854Z,5.30
2022-11-17T13:12:47.349Z,5.40
2022-11-17T13:15:51.995Z,5.40
2022-11-17T13:18:53.755Z,5.40
2022-11-17T13:22:20.032Z,6.00
2022-11-17T13:25:22.961Z,5.70
2022-11-17T13:28:30.915Z,5.50
2022-11-17T13:31:33.526Z,5.60
2022-11-17T13:34:35.910Z,5.60
2022-11-17T13:37:37.753Z,5.60
2022-11-17T13:40:41.530Z,5.60
2022-11-17T13:43:45.952Z,6.10
2022-11-17T13:46:51.871Z,6.20
2022-11-17T13:49:53.526Z,5.60
2022-11-17T13:52:58.792Z,5.60
2022-11-17T13:56:00.668Z,5.80
2022-11-17T13:59:26.425Z,5.30
2022-11-17T14:02:29.676Z,5.70
2022-11-17T14:05:33.025Z,5.80
2022-11-17T14:08:36.289Z,5.80
2022-11-17T14:11:41.719Z,6.10
2022-11-17T14:14:44.964Z,5.90
2022-11-17T14:17:58.341Z,5.90
2022-11-17T14:21:16.632Z,5.90
2022-11-17T14:24:18.441Z,5.90
2022-11-17T14:27:29.663Z,5.90
2022-11-17T14:30:31.386Z,5.90
2022-11-17T14:33:33.034Z,5.90
2022-11-17T14:36:36.634Z,5.60
2022-11-17T14:39:38.359Z,5.90
2022-11-17T14:42:45.421Z,6.10
2022-11-17T14:45:47.863Z,5.50
2022-11-17T14:48:50.130Z,6.00
2022-11-17T14:51:53.111Z,6.00
2022-11-17T14:55:07.940Z,6.00
2022-11-17T14:58:10.119Z,6.00
2022-11-17T15:01:18.612Z,6.20
2022-11-17T15:04:48.736Z,6.00
2022-11-17T15:07:42.477Z,6.10
2022-11-17T15:10:45.413Z,6.10
2022-11-17T15:13:47.088Z,6.10
2022-11-17T15:16:48.759Z,6.10
2022-11-17T15:19:50.410Z,6.10
2022-11-17T15:22:52.065Z,6.10
2022-11-17T15:25:53.770Z,6.10
2022-11-17T15:28:57.817Z,6.10
2022-11-17T15:32:02.520Z,6.30
2022-11-17T15:35:04.283Z,6.30
2022-11-17T15:38:06.006Z,6.10
2022-11-17T15:41:09.830Z,6.20
2022-11-17T15:44:11.501Z,6.20
2022-11-17T15:47:13.104Z,6.20
2022-11-17T15:50:15.050Z,6.30
2022-11-17T15:53:16.727Z,6.20
2022-11-17T15:56:36.224Z,5.80
2022-11-17T15:59:37.820Z,6.30
2022-11-17T16:02:41.213Z,6.30
2022-11-17T16:05:42.932Z,6.20
2022-11-17T16:08:44.667Z,6.60
2022-11-17T16:11:46.377Z,6.30
2022-11-17T16:14:48.127Z,6.30
2022-11-17T16:17:49.839Z,6.30
2022-11-17T16:20:51.909Z,6.40
2022-11-17T16:23:56.411Z,5.80
2022-11-17T16:26:58.072Z,6.20
2022-11-17T16:29:59.763Z,6.80
2022-11-17T16:33:02.256Z,5.80
2022-11-17T16:36:05.466Z,6.10
2022-11-17T16:39:09.880Z,6.30
2022-11-17T16:42:11.549Z,6.80
2022-11-17T16:45:13.333Z,6.40
2022-11-17T16:48:15.129Z,6.70
2022-11-17T16:51:17.889Z,6.30
2022-11-17T16:54:20.535Z,6.50
2022-11-17T16:57:22.409Z,6.40
2022-11-17T17:00:24.241Z,6.40
2022-11-17T17:03:25.912Z,6.40
2022-11-17T17:06:28.244Z,6.70
2022-11-17T17:09:30.347Z,6.40
2022-11-17T17:12:32.290Z,6.70
2022-11-17T17:15:36.665Z,6.40
2022-11-17T17:18:38.884Z,6.60
2022-11-17T17:21:49.082Z,6.70
2022-11-17T17:24:53.999Z,6.60
2022-11-17T17:27:55.689Z,6.00
2022-11-17T17:30:57.761Z,6.70
2022-11-17T17:34:02.773Z,6.00
2022-11-17T17:37:04.490Z,6.10
2022-11-17T17:40:06.997Z,6.00
2022-11-17T17:43:08.676Z,6.30
2022-11-17T17:46:16.553Z,5.80
2022-11-17T17:49:19.349Z,6.30
2022-11-17T17:52:21.295Z,6.40
2022-11-17T17:55:23.099Z,6.20
2022-11-17T17:58:25.240Z,6.80
2022-11-17T18:01:40.635Z,6.90
2022-11-17T18:04:42.351Z,6.30
2022-11-17T18:07:44.098Z,6.60
2022-11-17T18:10:45.889Z,6.70
2022-11-17T18:13:49.722Z,5.90
2022-11-17T18:16:51.890Z,6.20
2022-11-17T18:19:53.612Z,6.10
2022-11-17T18:22:56.597Z,6.10
2022-11-17T18:25:58.424Z,6.10
2022-11-17T18:29:06.036Z,5.70
2022-11-17T18:32:07.790Z,6.10
2022-11-17T18:35:09.581Z,5.70
2022-11-17T18:38:11.594Z,6.60
2022-11-17T18:41:15.177Z,6.50
2022-11-17T18:44:19.329Z,5.60
2022-11-17T18:47:21.061Z,6.70
2022-11-17T18:50:22.719Z,6.60
2022-11-17T18:53:24.446Z,5.90
2022-11-17T18:56:28.404Z,6.10
2022-11-17T18:59:30.062Z,5.80
2022-11-17T19:02:31.876Z,6.10
2022-11-17T19:05:36.605Z,6.10
2022-11-17T19:08:38.606Z,6.10
2022-11-17T19:11:40.330Z,6.10
2022-11-17T19:14:42.170Z,6.50
2022-11-17T19:17:43.851Z,6.70
2022-11-17T19:20:46.081Z,6.40
2022-11-17T19:23:51.856Z,6.00
2022-11-17T19:26:53.954Z,5.70
2022-11-17T19:29:55.705Z,5.60
2022-11-17T19:32:57.559Z,6.20
2022-11-17T19:36:31.343Z,5.60
2022-11-17T19:39:33.012Z,6.20
2022-11-17T19:42:34.726Z,6.10
2022-11-17T19:45:36.405Z,6.10
2022-11-17T19:48:38.831Z,5.90
2022-11-17T19:51:41.874Z,6.70
2022-11-17T19:54:43.547Z,5.50
2022-11-17T19:57:48.031Z,6.90
2022-11-17T20:00:49.821Z,5.80
2022-11-17T20:04:20.805Z,6.20
2022-11-17T20:07:22.498Z,6.00
2022-11-17T20:10:24.208Z,5.90
2022-11-17T20:13:25.888Z,5.60
2022-11-17T20:16:27.788Z,5.70
2022-11-17T20:19:29.447Z,5.80
2022-11-17T20:22:31.681Z,5.50
2022-11-17T20:25:37.900Z,6.40
2022-11-17T20:28:40.392Z,5.80
2022-11-17T20:31:42.073Z,5.80
2022-11-17T20:34:43.720Z,5.80
2022-11-17T20:37:48.567Z,5.80
2022-11-17T20:40:55.554Z,5.80
2022-11-17T20:43:59.221Z,5.80
2022-11-17T20:47:00.955Z,5.80
2022-11-17T20:50:02.666Z,5.90
2022-11-17T20:53:04.332Z,5.80
2022-11-17T20:56:17.656Z,5.80
2022-11-17T20:59:20.440Z,5.90
2022-11-17T21:02:22.336Z,5.90
2022-11-17T21:05:24.008Z,5.70
2022-11-17T21:08:27.287Z,5.90
2022-11-17T21:11:47.744Z,6.00
2022-11-17T21:15:05.158Z,5.90
2022-11-17T21:18:24.865Z,6.10
2022-11-17T21:21:26.694Z,6.10
2022-11-17T21:24:28.370Z,6.20
2022-11-17T21:27:30.059Z,6.20
2022-11-17T21:30:32.734Z,6.20
2022-11-17T21:33:35.612Z,6.20
2022-11-17T21:36:37.291Z,6.30
2022-11-17T21:39:39.026Z,6.30
2022-11-17T21:42:40.705Z,6.30
2022-11-17T21:45:42.401Z,6.30
2022-11-17T21:48:45.168Z,6.40
2022-11-17T21:51:55.091Z,6.40
2022-11-17T21:54:56.817Z,6.30
2022-11-17T21:57:58.443Z,6.20
2022-11-17T22:01:14.076Z,7.10
2022-11-17T22:04:15.943Z,6.60
2022-11-17T22:07:20.192Z,6.20
2022-11-17T22:10:21.917Z,6.60
2022-11-17T22:13:23.690Z,6.20
2022-11-17T22:16:25.414Z,6.20
2022-11-17T22:19:29.348Z,7.20
2022-11-17T22:22:31.761Z,6.60
2022-11-17T22:25:48.797Z,6.80
2022-11-17T22:28:55.018Z,6.10
2022-11-17T22:31:56.704Z,6.00
2022-11-17T22:35:01.346Z,6.50
2022-11-17T22:38:02.981Z,7.60
2022-11-17T22:41:13.123Z,6.50
2022-11-17T22:44:18.146Z,6.50
2022-11-17T22:47:19.833Z,6.50
2022-11-17T22:50:21.541Z,6.50
2022-11-17T22:53:23.177Z,6.50
2022-11-17T22:56:24.846Z,6.30
2022-11-17T22:59:27.418Z,7.10
2022-11-17T23:02:29.130Z,6.30
2022-11-17T23:05:31.837Z,6.80
2022-11-17T23:08:33.502Z,6.20
2022-11-17T23:11:38.642Z,6.60
2022-11-17T23:14:40.387Z,6.40
2022-11-17T23:17:42.766Z,6.50
2022-11-17T23:20:44.430Z,7.20
2022-11-17T23:23:46.106Z,6.40
2022-11-17T23:26:47.829Z,6.00
2022-11-17T23:29:49.830Z,6.70
2022-11-17T23:32:55.391Z,6.50
2022-11-17T23:35:57.823Z,6.30
2022-11-17T23:38:59.489Z,6.50
2022-11-17T23:42:01.221Z,6.90
2022-11-17T23:45:02.918Z,6.50
2022-11-17T23:48:04.678Z,6.60
2022-11-17T23:51:07.835Z,6.60
2022-11-17T23:54:12.246Z,6.60
2022-11-17T23:57:13.847Z,6.60
